Time;durP1;ratioP1;P1;durP2;ratioP2;P2;SDS_P1;SDS_P2;PMS_P1;PMS_P2;Temp;Humidity;BMP_temperature;BMP_pressure;BME280_temperature;BME280_humidity;BME280_pressure;Samples;Min_cycle;Max_cycle;Signal;HPM_P1;HPM_P2
2023/01/11 00:00:38;;;;;;;16.27;7.90;;;;;;;4.88;91.63;100248.48;1428409;88;21389;-82
2023/01/11 00:03:05;;;;;;;9.33;6.00;;;;;;;4.91;92.00;100253.50;1460885;88;22484;-83
2023/01/11 00:05:38;;;;;;;16.67;6.30;;;;;;;4.88;91.95;100253.25;1481187;88;21375;-83
2023/01/11 00:08:05;;;;;;;12.37;7.30;;;;;;;4.86;91.82;100247.30;1478387;89;21914;-84
2023/01/11 00:10:32;;;;;;;12.20;6.93;;;;;;;4.88;92.69;100245.38;1487625;88;21600;-87
2023/01/11 00:13:00;;;;;;;14.87;8.77;;;;;;;4.83;92.17;100233.09;1481384;88;21500;-84
2023/01/11 00:15:26;;;;;;;15.57;8.20;;;;;;;4.82;92.65;100240.60;1488166;87;21507;-82
2023/01/11 00:17:52;;;;;;;13.03;8.83;;;;;;;4.83;92.92;100244.88;1480067;88;21411;-82
2023/01/11 00:20:19;;;;;;;12.47;6.87;;;;;;;4.82;92.80;100254.20;1489096;87;22350;-85
2023/01/11 00:22:45;;;;;;;15.50;9.63;;;;;;;4.81;92.74;100262.55;1481436;88;21478;-84
2023/01/11 00:25:12;;;;;;;15.57;9.67;;;;;;;4.85;93.09;100266.59;1493528;88;22320;-86
2023/01/11 00:27:38;;;;;;;14.23;8.93;;;;;;;4.84;93.49;100266.73;1491821;88;21367;-86
2023/01/11 00:30:05;;;;;;;11.27;7.73;;;;;;;4.83;93.29;100265.86;1481674;88;21470;-85
2023/01/11 00:32:31;;;;;;;13.40;8.53;;;;;;;4.86;92.75;100261.73;1486549;88;22246;-83
2023/01/11 00:34:58;;;;;;;16.13;9.77;;;;;;;4.83;92.89;100267.17;1480130;88;21432;-83
2023/01/11 00:37:24;;;;;;;14.37;9.17;;;;;;;4.83;92.40;100268.48;1481530;88;21367;-87
2023/01/11 00:39:51;;;;;;;16.03;8.20;;;;;;;4.85;92.59;100262.66;1484222;88;21330;-86
2023/01/11 00:47:56;;;;;;;14.43;9.20;;;;;;;4.80;92.69;100270.03;1484998;88;22187;-86
2023/01/11 00:50:24;;;;;;;14.87;8.93;;;;;;;4.82;93.27;100281.25;1479897;88;21575;-84
2023/01/11 00:52:51;;;;;;;14.33;8.60;;;;;;;4.83;93.34;100294.70;1481231;88;22313;-82
2023/01/11 00:55:17;;;;;;;16.43;8.77;;;;;;;4.82;92.79;100299.61;1456805;88;21507;-82
2023/01/11 00:57:43;;;;;;;16.00;9.10;;;;;;;4.85;93.00;100311.17;1476994;88;21397;-82
2023/01/11 01:00:11;;;;;;;15.97;9.23;;;;;;;4.84;92.64;100312.13;1453762;88;21478;-83
2023/01/11 01:02:37;;;;;;;18.50;10.47;;;;;;;4.86;92.94;100316.80;1490539;88;22291;-81
2023/01/11 01:05:04;;;;;;;17.00;9.80;;;;;;;4.88;92.71;100329.30;1492532;87;21426;-81
2023/01/11 01:07:31;;;;;;;14.57;9.80;;;;;;;4.89;92.90;100323.12;1481201;87;21618;-80
2023/01/11 01:09:57;;;;;;;18.50;9.67;;;;;;;4.92;92.81;100333.84;1483278;88;21345;-81
2023/01/11 01:15:09;;;;;;;13.83;8.47;;;;;;;4.90;92.75;100327.89;1473520;88;22424;-79
2023/01/11 01:17:35;;;;;;;19.47;11.23;;;;;;;4.89;92.62;100333.62;1483956;88;21516;-79
2023/01/11 01:20:02;;;;;;;13.63;8.47;;;;;;;4.89;92.02;100328.37;1480050;87;22461;-82
2023/01/11 01:22:28;;;;;;;16.77;9.43;;;;;;;4.92;91.95;100332.08;1482672;88;22424;-80
2023/01/11 01:24:55;;;;;;;13.53;8.67;;;;;;;4.96;92.48;100332.68;1487051;87;21515;-81
2023/01/11 01:27:21;;;;;;;15.67;9.33;;;;;;;4.95;92.00;100338.41;1486431;87;22358;-79
2023/01/11 01:29:47;;;;;;;13.60;7.30;;;;;;;4.95;92.22;100334.47;1487233;88;21419;-80
2023/01/11 01:32:14;;;;;;;11.07;7.57;;;;;;;4.90;91.95;100322.16;1480178;88;21476;-81
2023/01/11 01:34:40;;;;;;;12.77;7.73;;;;;;;4.96;92.21;100336.13;1477041;88;21462;-81
2023/01/11 01:37:09;;;;;;;11.37;7.40;;;;;;;4.91;91.93;100336.94;1483762;88;22502;-80
2023/01/11 01:39:35;;;;;;;12.90;7.77;;;;;;;4.93;92.36;100335.05;1483459;87;21464;-83
2023/01/11 01:42:01;;;;;;;12.87;8.13;;;;;;;4.93;92.18;100332.43;1481481;88;21323;-83
2023/01/11 01:45:08;;;;;;;10.37;7.07;;;;;;;4.95;92.71;100319.22;1483239;88;21360;-82
2023/01/11 01:47:48;;;;;;;12.87;7.30;;;;;;;4.93;93.52;100308.83;1482477;88;21441;-82
2023/01/11 01:50:32;;;;;;;12.45;8.03;;;;;;;4.87;93.88;100313.22;1485248;88;21587;-79
2023/01/11 01:53:06;;;;;;;11.70;8.73;;;;;;;4.81;93.75;100320.23;1475327;88;21477;-80
2023/01/11 01:55:36;;;;;;;16.60;9.13;;;;;;;4.82;94.52;100305.33;1482150;87;22402;-82
2023/01/11 01:58:07;;;;;;;10.70;6.57;;;;;;;4.75;94.61;100304.47;1484453;88;21389;-81
2023/01/11 02:00:33;;;;;;;15.68;8.53;;;;;;;4.68;94.55;100312.89;1466110;89;21591;-80
2023/01/11 02:03:00;;;;;;;14.37;9.43;;;;;;;4.59;94.27;100293.43;1486868;88;21560;-83
2023/01/11 02:05:27;;;;;;;12.93;8.50;;;;;;;4.66;94.01;100295.98;1490296;88;21563;-82
2023/01/11 02:07:56;;;;;;;15.83;7.53;;;;;;;4.67;93.96;100294.19;1486846;88;21330;-84
2023/01/11 02:10:26;;;;;;;13.73;8.13;;;;;;;4.62;93.86;100297.14;1482169;88;22453;-83
2023/01/11 02:13:07;;;;;;;14.90;9.13;;;;;;;4.65;93.99;100300.02;1478396;86;21418;-83
2023/01/11 02:15:34;;;;;;;11.60;7.67;;;;;;;4.62;94.03;100280.58;1488790;88;21367;-82
2023/01/11 02:18:00;;;;;;;14.33;8.30;;;;;;;4.62;94.02;100287.97;1484210;88;21396;-83
2023/01/11 02:21:04;;;;;;;14.00;8.53;;;;;;;4.58;93.93;100278.66;1474701;88;21397;-82
2023/01/11 02:23:44;;;;;;;13.60;8.77;;;;;;;4.57;94.29;100274.83;1492262;87;22402;-83
2023/01/11 02:26:48;;;;;;;14.80;8.10;;;;;;;4.58;94.36;100276.52;1478915;88;22224;-81
2023/01/11 02:29:41;;;;;;;16.20;8.83;;;;;;;4.51;94.48;100275.64;1484360;88;21662;-82
2023/01/11 02:32:25;;;;;;;13.87;8.67;;;;;;;4.51;94.22;100300.53;1455929;89;21463;-80
2023/01/11 02:35:00;;;;;;;15.93;9.33;;;;;;;4.57;94.43;100293.18;1494935;88;21374;-80
2023/01/11 02:38:00;;;;;;;16.33;9.97;;;;;;;4.56;94.51;100320.35;1478656;88;21373;-84
2023/01/11 02:40:49;;;;;;;16.17;8.70;;;;;;;4.53;94.88;100330.58;1483557;88;21426;-83
2023/01/11 02:46:44;;;;;;;18.27;11.53;;;;;;;4.59;94.24;100341.09;1489891;87;21536;-82
2023/01/11 02:49:42;;;;;;;19.27;10.80;;;;;;;4.65;94.43;100348.52;1487033;87;21433;-83
2023/01/11 02:52:16;;;;;;;12.47;8.43;;;;;;;4.67;94.67;100345.31;1489006;87;21462;-81
2023/01/11 02:54:46;;;;;;;15.83;10.17;;;;;;;4.68;93.82;100349.59;1487585;87;21522;-81
2023/01/11 02:57:14;;;;;;;17.20;10.63;;;;;;;4.73;93.81;100346.17;1495896;87;21558;-81
2023/01/11 02:59:41;;;;;;;18.17;11.57;;;;;;;4.77;93.72;100339.74;1485427;87;22028;-81
2023/01/11 03:02:08;;;;;;;14.80;9.87;;;;;;;4.75;93.57;100352.98;1493447;87;22305;-80
2023/01/11 03:04:36;;;;;;;19.20;10.90;;;;;;;4.77;93.24;100344.98;1492514;87;21345;-80
2023/01/11 03:07:35;;;;;;;16.10;9.00;;;;;;;4.82;93.55;100346.80;1489475;87;21550;-80
2023/01/11 03:10:35;;;;;;;16.97;9.50;;;;;;;4.83;93.49;100345.84;1494877;87;21433;-81
2023/01/11 03:13:26;;;;;;;15.20;9.93;;;;;;;4.82;93.32;100349.42;1486442;87;21469;-80
2023/01/11 03:16:10;;;;;;;19.10;11.60;;;;;;;4.84;93.33;100354.09;1495242;87;22282;-81
2023/01/11 03:19:06;;;;;;;15.10;9.87;;;;;;;4.88;93.06;100348.97;1490483;87;22342;-81
2023/01/11 03:22:15;;;;;;;17.13;8.93;;;;;;;4.90;93.39;100352.33;1493436;87;21433;-81
2023/01/11 03:24:58;;;;;;;16.03;9.73;;;;;;;4.87;93.19;100343.86;1486953;87;22349;-80
2023/01/11 03:27:45;;;;;;;16.10;9.47;;;;;;;4.87;92.78;100340.75;1493996;87;21447;-82
2023/01/11 03:30:22;;;;;;;17.03;10.07;;;;;;;4.90;92.62;100352.33;1425059;87;21577;-80
2023/01/11 03:33:06;;;;;;;17.53;9.03;;;;;;;4.91;93.04;100351.36;1489794;87;22453;-80
2023/01/11 03:35:40;;;;;;;19.63;9.67;;;;;;;4.91;92.70;100355.30;1481026;87;21515;-83
2023/01/11 03:38:21;;;;;;;15.77;7.63;;;;;;;4.93;93.11;100356.03;1482922;87;22319;-82
2023/01/11 03:40:52;;;;;;;19.77;11.28;;;;;;;4.92;93.17;100360.92;1494805;87;21455;-82
2023/01/11 03:43:22;;;;;;;16.50;9.97;;;;;;;4.96;93.27;100364.98;1494038;87;21307;-81
2023/01/11 03:46:06;;;;;;;16.90;8.93;;;;;;;4.93;93.00;100369.14;1486240;87;21352;-80
2023/01/11 03:48:37;;;;;;;16.13;10.03;;;;;;;4.94;92.88;100374.73;1488229;87;21492;-82
2023/01/11 03:51:09;;;;;;;17.10;10.30;;;;;;;4.98;92.93;100368.82;1492607;87;21433;-81
2023/01/11 03:53:38;;;;;;;14.07;8.83;;;;;;;4.96;92.60;100378.58;1484920;87;23084;-81
2023/01/11 03:56:10;;;;;;;15.93;9.10;;;;;;;4.96;92.81;100368.92;1489900;87;22225;-82
2023/01/11 03:58:37;;;;;;;15.13;8.97;;;;;;;4.98;93.00;100365.72;1486918;87;22225;-81
2023/01/11 04:01:04;;;;;;;15.53;7.57;;;;;;;4.98;93.08;100358.33;1489651;87;21352;-80
2023/01/11 04:03:31;;;;;;;15.83;9.50;;;;;;;4.94;92.99;100354.23;1490908;87;21448;-80
2023/01/11 04:06:00;;;;;;;15.70;9.10;;;;;;;4.95;93.63;100351.52;1486497;87;21537;-81
2023/01/11 04:08:26;;;;;;;12.60;8.00;;;;;;;4.90;93.32;100356.73;1486434;87;21447;-80
2023/01/11 04:10:53;;;;;;;13.77;8.33;;;;;;;4.88;93.61;100370.43;1478129;87;22772;-80
2023/01/11 04:13:19;;;;;;;15.13;9.27;;;;;;;4.90;93.98;100378.55;1489320;87;22412;-82
2023/01/11 04:15:45;;;;;;;16.37;9.77;;;;;;;4.90;93.78;100378.55;1477325;88;21407;-80
2023/01/11 04:18:11;;;;;;;16.77;9.57;;;;;;;4.89;93.70;100378.65;1481466;88;21389;-81
2023/01/11 04:20:39;;;;;;;16.67;10.00;;;;;;;4.91;93.76;100383.31;1484047;88;21337;-81
2023/01/11 04:23:08;;;;;;;14.77;9.40;;;;;;;4.92;94.00;100382.36;1465988;89;21375;-80
2023/01/11 04:25:35;;;;;;;16.63;10.13;;;;;;;4.89;93.80;100386.06;1481751;88;21395;-81
2023/01/11 04:28:01;;;;;;;14.10;8.30;;;;;;;4.89;93.64;100383.45;1483809;88;21382;-80
2023/01/11 04:30:28;;;;;;;13.57;8.40;;;;;;;4.88;93.48;100392.24;1488172;87;22366;-82
2023/01/11 04:32:59;;;;;;;14.10;9.53;;;;;;;4.84;93.56;100392.12;1486259;88;21604;-79
2023/01/11 04:35:25;;;;;;;17.87;10.38;;;;;;;4.92;93.71;100409.89;1488349;87;21404;-81
2023/01/11 04:37:56;;;;;;;16.33;9.13;;;;;;;4.93;93.60;100414.21;1462749;89;21360;-81
2023/01/11 04:40:24;;;;;;;17.52;10.45;;;;;;;4.88;93.79;100404.52;1490409;88;21478;-82
2023/01/11 04:42:50;;;;;;;16.10;9.77;;;;;;;4.90;93.87;100413.95;1480279;88;22371;-81
2023/01/11 04:45:16;;;;;;;19.00;11.33;;;;;;;4.90;93.80;100404.78;1485592;88;22189;-83
2023/01/11 04:47:42;;;;;;;17.93;11.23;;;;;;;4.89;93.73;100411.43;1480599;88;22387;-82
2023/01/11 04:50:11;;;;;;;17.33;10.23;;;;;;;4.89;94.33;100399.19;1472657;89;21324;-83
2023/01/11 04:52:39;;;;;;;19.40;9.97;;;;;;;4.87;93.88;100401.07;1481889;88;22410;-81
2023/01/11 04:55:05;;;;;;;20.57;11.90;;;;;;;4.88;93.86;100401.42;1476849;88;21434;-81
2023/01/11 04:57:32;;;;;;;15.17;10.07;;;;;;;4.91;94.00;100401.20;1478803;88;21530;-82
2023/01/11 04:59:58;;;;;;;17.37;11.43;;;;;;;4.91;93.93;100409.55;1481141;88;21411;-82
2023/01/11 05:02:24;;;;;;;21.10;11.67;;;;;;;4.89;93.71;100403.56;1473372;88;21581;-80
2023/01/11 05:04:50;;;;;;;24.30;14.23;;;;;;;4.88;93.65;100403.21;1474629;88;21375;-81
2023/01/11 05:07:16;;;;;;;23.30;12.23;;;;;;;4.90;93.75;100405.26;1488115;88;21545;-82
2023/01/11 05:09:42;;;;;;;19.93;11.23;;;;;;;4.92;93.86;100413.38;1480312;88;21375;-82
2023/01/11 05:12:08;;;;;;;18.60;11.97;;;;;;;4.90;93.36;100410.50;1485214;88;21434;-80
2023/01/11 05:14:35;;;;;;;18.17;11.97;;;;;;;4.92;93.21;100423.01;1483243;88;22336;-83
2023/01/11 05:17:01;;;;;;;16.43;9.33;;;;;;;4.95;93.26;100424.95;1486504;88;21511;-81
2023/01/11 05:19:27;;;;;;;18.73;11.60;;;;;;;4.94;93.46;100435.06;1476133;88;21368;-81
2023/01/11 05:21:53;;;;;;;15.63;9.77;;;;;;;4.97;93.42;100424.83;1474131;88;21625;-79
2023/01/11 05:24:20;;;;;;;20.17;10.87;;;;;;;4.96;93.46;100423.17;1458166;88;21439;-82
2023/01/11 05:26:49;;;;;;;16.77;8.60;;;;;;;4.92;93.36;100422.56;1470880;88;21500;-79
2023/01/11 05:29:15;;;;;;;16.37;10.40;;;;;;;4.89;93.41;100419.30;1482171;88;21375;-81
2023/01/11 05:31:41;;;;;;;17.53;10.33;;;;;;;4.88;93.84;100418.47;1481132;88;21555;-79
2023/01/11 05:34:11;;;;;;;15.40;9.13;;;;;;;4.91;94.07;100416.93;1471945;88;21405;-81
2023/01/11 05:36:38;;;;;;;17.87;9.48;;;;;;;4.90;93.66;100428.86;1473777;88;22196;-81
2023/01/11 05:39:05;;;;;;;13.67;8.50;;;;;;;4.88;93.77;100428.95;1475235;88;21338;-80
2023/01/11 05:41:32;;;;;;;20.80;11.27;;;;;;;4.94;94.04;100444.73;1479811;88;21404;-80
2023/01/11 05:46:44;;;;;;;18.23;9.63;;;;;;;4.91;94.08;100451.02;1492311;88;21390;-81
2023/01/11 05:49:12;;;;;;;14.53;9.70;;;;;;;4.91;94.25;100443.16;1483447;88;21573;-82
2023/01/11 05:51:41;;;;;;;15.27;9.53;;;;;;;4.93;94.11;100447.00;1477702;88;21434;-85
2023/01/11 05:54:11;;;;;;;16.93;10.70;;;;;;;4.89;94.41;100446.84;1478435;88;22594;-84
2023/01/11 05:56:38;;;;;;;14.95;9.88;;;;;;;4.89;94.33;100454.26;1481141;88;21264;-85
2023/01/11 05:59:04;;;;;;;14.50;8.17;;;;;;;4.90;94.54;100452.47;1479947;88;21597;-80
2023/01/11 06:01:30;;;;;;;17.50;9.37;;;;;;;4.91;94.51;100452.34;1487152;88;22196;-83
2023/01/11 06:03:57;;;;;;;13.43;7.40;;;;;;;4.89;94.50;100466.06;1486152;88;22269;-83
2023/01/11 06:06:23;;;;;;;17.00;9.87;;;;;;;4.85;94.18;100463.27;1482705;88;22284;-82
2023/01/11 06:08:49;;;;;;;16.90;11.43;;;;;;;4.90;94.39;100478.22;1486171;88;21359;-83
2023/01/11 06:11:15;;;;;;;18.33;11.43;;;;;;;4.93;94.66;100479.30;1456517;88;21523;-83
2023/01/11 06:13:42;;;;;;;18.33;10.23;;;;;;;4.88;94.43;100475.33;1488190;88;22402;-81
2023/01/11 06:16:16;;;;;;;17.03;10.27;;;;;;;4.91;94.51;100482.98;1479361;88;21381;-83
2023/01/11 06:18:47;;;;;;;16.83;10.73;;;;;;;4.93;94.80;100476.67;1486010;88;21478;-81
2023/01/11 06:21:14;;;;;;;22.70;12.55;;;;;;;4.88;94.42;100477.95;1483665;88;21389;-78
2023/01/11 06:23:45;;;;;;;15.97;9.50;;;;;;;4.88;94.61;100482.72;1476737;87;22350;-84
2023/01/11 06:26:15;;;;;;;19.32;11.03;;;;;;;4.92;95.49;100475.02;1493648;87;21293;-89
2023/01/11 06:28:43;;;;;;;14.13;9.43;;;;;;;5.01;96.11;100469.58;1488220;88;21558;-82
2023/01/11 06:31:09;;;;;;;19.40;10.70;;;;;;;5.02;94.99;100468.63;1478113;87;21382;-81
2023/01/11 06:33:36;;;;;;;19.37;12.00;;;;;;;4.96;94.02;100476.45;1480109;88;22483;-80
2023/01/11 06:36:07;;;;;;;17.10;10.70;;;;;;;4.95;94.27;100473.96;1482324;88;21426;-80
2023/01/11 06:38:34;;;;;;;25.77;12.40;;;;;;;4.92;94.37;100482.02;1482333;88;21515;-80
2023/01/11 06:41:03;;;;;;;18.60;11.47;;;;;;;4.87;94.60;100489.41;1480232;88;21367;-79
2023/01/11 06:43:30;;;;;;;17.70;10.60;;;;;;;4.85;94.52;100489.50;1480892;87;21366;-81
2023/01/11 06:45:57;;;;;;;22.77;12.43;;;;;;;4.84;94.71;100487.00;1405999;87;22122;-81
2023/01/11 06:48:24;;;;;;;18.77;10.83;;;;;;;4.81;94.97;100490.67;1406258;87;21205;-81
2023/01/11 06:50:55;;;;;;;18.17;11.50;;;;;;;4.86;95.03;100489.88;1406549;87;21309;-87
2023/01/11 06:53:23;;;;;;;21.70;13.78;;;;;;;4.85;94.64;100488.19;1403489;88;21383;-90
2023/01/11 06:55:55;;;;;;;16.97;10.23;;;;;;;4.88;94.99;100491.90;1483866;88;21433;-91
2023/01/11 06:58:23;;;;;;;20.27;12.67;;;;;;;4.89;95.00;100485.73;1443739;88;21359;-89
2023/01/11 07:00:51;;;;;;;21.93;13.30;;;;;;;4.92;94.95;100488.13;1484267;87;21294;-92
2023/01/11 07:03:19;;;;;;;17.60;10.23;;;;;;;4.88;94.84;100489.75;1486532;87;21403;-93
2023/01/11 07:05:45;;;;;;;23.20;12.03;;;;;;;4.88;94.91;100495.00;1488557;87;21522;-92
2023/01/11 07:08:11;;;;;;;23.50;11.40;;;;;;;4.90;94.62;100493.95;1481138;87;21389;-86
2023/01/11 07:10:38;;;;;;;18.93;11.33;;;;;;;4.96;95.08;100499.23;1484575;87;21381;-89
2023/01/11 07:13:04;;;;;;;22.37;13.33;;;;;;;4.92;94.64;100503.87;1566107;88;21330;-91
2023/01/11 07:15:31;;;;;;;21.87;12.50;;;;;;;4.93;94.27;100506.84;1391472;89;22411;-90
2023/01/11 07:17:59;;;;;;;20.60;12.70;;;;;;;4.92;94.70;100513.49;1444552;88;21367;-89
2023/01/11 07:20:26;;;;;;;18.23;11.50;;;;;;;4.94;94.61;100517.69;1484407;88;21359;-89
2023/01/11 07:22:58;;;;;;;20.47;11.93;;;;;;;4.96;94.75;100518.91;1485109;88;21435;-89
2023/01/11 07:25:27;;;;;;;17.83;10.20;;;;;;;4.97;94.22;100517.95;1569839;87;21286;-91
2023/01/11 07:28:00;;;;;;;17.10;9.97;;;;;;;5.01;94.33;100518.59;1480341;87;21493;-86
2023/01/11 07:30:30;;;;;;;17.83;11.23;;;;;;;5.01;94.14;100521.21;1484358;88;21537;-90
2023/01/11 07:33:00;;;;;;;19.87;10.63;;;;;;;4.98;94.29;100528.82;1484096;87;21374;-91
2023/01/11 07:35:27;;;;;;;20.23;11.97;;;;;;;5.03;94.20;100528.47;1481256;87;22504;-92
2023/01/11 07:37:53;;;;;;;21.20;12.47;;;;;;;5.11;94.10;100532.22;1483269;88;21367;-93
2023/01/11 07:40:19;;;;;;;16.80;10.20;;;;;;;5.07;94.17;100530.78;1483121;87;21345;-95
2023/01/11 07:45:35;;;;;;;21.53;13.03;;;;;;;5.05;93.77;100539.23;1483242;88;21507;-89
2023/01/11 07:48:47;;;;;;;16.80;10.83;;;;;;;5.11;94.22;100536.64;1405157;88;21555;-88
2023/01/11 07:51:22;;;;;;;18.33;9.83;;;;;;;5.17;93.57;100540.97;1454907;87;22313;-92
2023/01/11 07:53:47;;;;;;;19.67;11.23;;;;;;;5.22;93.75;100533.25;1482413;88;21582;-88
2023/01/11 07:56:14;;;;;;;14.97;10.47;;;;;;;5.21;93.62;100537.67;1486330;88;22298;-79
2023/01/11 07:58:42;;;;;;;15.87;10.23;;;;;;;5.24;93.46;100531.36;1479370;88;23086;-85
2023/01/11 08:01:08;;;;;;;17.33;9.80;;;;;;;5.28;93.04;100531.49;1481928;87;21389;-90
2023/01/11 08:03:35;;;;;;;15.80;10.23;;;;;;;5.32;93.15;100532.48;1460338;88;21403;-88
2023/01/11 08:06:01;;;;;;;20.87;11.77;;;;;;;5.41;92.91;100535.75;1475389;88;21478;-87
2023/01/11 08:08:27;;;;;;;20.67;12.00;;;;;;;5.42;92.33;100533.95;1481800;88;21590;-85
2023/01/11 08:16:26;;;;;;;16.73;9.97;;;;;;;5.51;91.67;100537.22;1480801;87;21625;-86
2023/01/11 08:18:53;;;;;;;16.77;11.53;;;;;;;5.60;91.34;100537.02;1486458;87;21360;-88
2023/01/11 08:21:20;;;;;;;15.63;9.40;;;;;;;5.59;91.28;100545.37;1483450;88;21893;-91
2023/01/11 08:27:47;;;;;;;12.63;9.43;;;;;;;5.71;90.66;100546.25;1474595;88;22381;-90
2023/01/11 08:30:14;;;;;;;15.70;10.30;;;;;;;5.70;90.49;100544.59;1483910;88;22240;-91
2023/01/11 08:32:40;;;;;;;17.17;10.27;;;;;;;5.75;90.67;100550.31;1481211;87;21352;-92
2023/01/11 08:35:07;;;;;;;13.07;9.10;;;;;;;5.85;90.72;100556.58;1457455;89;21412;-89
2023/01/11 08:37:33;;;;;;;16.83;10.70;;;;;;;5.88;89.76;100564.23;1485990;88;22245;-93
2023/01/11 08:39:59;;;;;;;13.40;9.23;;;;;;;5.92;88.92;100561.37;1453233;88;21330;-93
2023/01/11 08:42:26;;;;;;;16.43;8.77;;;;;;;6.02;89.03;100568.97;1489576;88;21518;-93
2023/01/11 08:44:54;;;;;;;13.10;8.30;;;;;;;6.10;89.25;100574.02;1482197;88;21315;-92
2023/01/11 08:47:20;;;;;;;13.47;9.13;;;;;;;6.25;89.23;100572.02;1486149;87;22342;-89
2023/01/11 08:49:47;;;;;;;15.20;9.07;;;;;;;6.40;87.33;100564.75;1486017;87;21381;-93
2023/01/11 08:52:13;;;;;;;15.47;9.20;;;;;;;6.47;86.71;100562.47;1478659;88;21563;-88
2023/01/11 08:54:41;;;;;;;10.97;8.40;;;;;;;6.56;86.29;100561.79;1484461;87;22615;-90
2023/01/11 08:57:07;;;;;;;12.37;7.67;;;;;;;6.60;85.41;100559.27;1485385;88;21441;-90
2023/01/11 08:59:33;;;;;;;12.23;8.13;;;;;;;6.62;84.20;100559.13;1485651;88;21235;-91
2023/01/11 09:02:01;;;;;;;16.17;9.13;;;;;;;6.70;83.96;100564.64;1481652;88;21411;-94
2023/01/11 09:04:28;;;;;;;15.87;8.57;;;;;;;6.75;84.34;100567.27;1490525;87;22336;-93
2023/01/11 09:06:54;;;;;;;11.83;7.67;;;;;;;6.85;84.14;100573.98;1492778;87;21358;-92
2023/01/11 09:09:20;;;;;;;13.60;8.33;;;;;;;6.87;83.92;100568.59;1482554;87;21931;-87
2023/01/11 09:12:01;;;;;;;12.27;8.37;;;;;;;7.00;84.49;100576.72;1481812;88;22262;-87
2023/01/11 09:14:33;;;;;;;10.60;6.70;;;;;;;6.95;83.85;100576.72;1482669;88;22470;-86
2023/01/11 09:16:59;;;;;;;13.33;7.83;;;;;;;7.00;83.07;100575.89;1429812;89;21323;-86
2023/01/11 09:19:26;;;;;;;12.77;7.30;;;;;;;7.04;85.30;100574.68;1407419;88;22093;-90
2023/01/11 09:21:54;;;;;;;12.13;7.73;;;;;;;7.31;88.62;100572.12;1407825;88;21257;-91
2023/01/11 09:24:20;;;;;;;10.63;6.83;;;;;;;7.44;83.65;100580.72;1562366;88;21308;-89
2023/01/11 09:26:46;;;;;;;9.47;6.73;;;;;;;7.55;81.71;100583.81;1570135;88;21184;-86
2023/01/11 09:29:13;;;;;;;13.03;6.97;;;;;;;7.62;82.00;100583.20;1407195;88;21615;-85
2023/01/11 09:31:39;;;;;;;12.50;7.70;;;;;;;7.48;81.78;100576.89;1407406;88;21331;-88
2023/01/11 09:34:07;;;;;;;10.43;6.37;;;;;;;7.46;81.53;100580.13;1406693;88;21271;-83
2023/01/11 09:36:35;;;;;;;11.13;6.87;;;;;;;7.56;79.99;100574.45;1406458;88;21228;-88
2023/01/11 09:39:05;;;;;;;11.23;7.70;;;;;;;7.57;80.27;100575.31;1405213;88;21257;-87
2023/01/11 09:42:21;;;;;;;9.60;6.30;;;;;;;7.62;80.73;100571.34;1410936;88;21464;-85
2023/01/11 09:45:11;;;;;;;10.90;6.97;;;;;;;7.81;79.86;100560.60;1410142;87;21183;-89
2023/01/11 09:47:50;;;;;;;9.90;6.60;;;;;;;7.81;79.25;100562.75;1568663;88;21154;-89
2023/01/11 09:50:27;;;;;;;9.63;6.77;;;;;;;7.88;78.28;100559.98;1407526;88;21301;-92
2023/01/11 09:53:03;;;;;;;8.00;6.17;;;;;;;8.55;75.80;100564.04;1404050;89;21390;-90
2023/01/11 09:55:40;;;;;;;10.80;6.23;;;;;;;9.12;73.57;100551.20;1402669;89;22462;-84
2023/01/11 09:58:35;;;;;;;11.13;7.30;;;;;;;9.60;71.21;100539.02;1563311;88;21530;-92
2023/01/11 10:01:37;;;;;;;7.00;5.50;;;;;;;9.79;69.67;100536.39;1545967;89;21280;-91
2023/01/11 10:04:36;;;;;;;10.53;7.27;;;;;;;10.17;69.86;100535.99;1475586;88;21683;-89
2023/01/11 10:07:45;;;;;;;10.20;6.37;;;;;;;10.17;68.02;100541.28;1568901;87;21360;-89
2023/01/11 10:10:20;;;;;;;9.00;6.78;;;;;;;10.62;66.79;100547.27;1555861;88;21331;-90
2023/01/11 10:13:12;;;;;;;7.03;5.23;;;;;;;10.59;67.27;100539.61;1407230;89;21338;-93
2023/01/11 10:15:46;;;;;;;7.60;5.30;;;;;;;11.21;65.76;100543.83;1430243;86;22308;-85
2023/01/11 10:18:33;;;;;;;6.30;4.93;;;;;;;11.02;63.85;100540.82;1565659;88;22263;-93
2023/01/11 10:21:22;;;;;;;8.27;5.80;;;;;;;10.97;64.95;100545.72;1570134;88;21324;-88
2023/01/11 10:24:13;;;;;;;8.77;5.30;;;;;;;11.05;64.71;100541.84;1443440;89;21560;-88
2023/01/11 10:26:40;;;;;;;7.53;5.47;;;;;;;10.90;64.35;100544.12;1570104;87;21346;-84
2023/01/11 10:34:55;;;;;;;7.17;5.17;;;;;;;11.47;63.74;100539.95;1507508;88;21441;-86
2023/01/11 10:43:23;;;;;;;7.87;5.43;;;;;;;11.93;60.01;100534.10;1568407;88;21191;-83
2023/01/11 10:45:53;;;;;;;7.47;4.83;;;;;;;12.43;63.18;100538.78;1551666;88;21419;-83
2023/01/11 10:48:42;;;;;;;5.85;5.12;;;;;;;12.76;62.95;100541.09;1489888;87;22585;-87
2023/01/11 10:51:28;;;;;;;7.27;5.40;;;;;;;12.84;61.15;100541.64;1483170;88;21500;-86
2023/01/11 10:54:12;;;;;;;8.13;5.53;;;;;;;13.00;62.14;100541.68;1483552;88;21404;-89
2023/01/11 10:57:19;;;;;;;6.17;4.57;;;;;;;12.70;58.54;100536.92;1482058;88;21622;-85
2023/01/11 10:59:59;;;;;;;6.97;4.40;;;;;;;12.32;58.55;100534.56;1482079;88;21396;-84
2023/01/11 11:02:49;;;;;;;6.30;4.90;;;;;;;12.58;60.71;100529.73;1485030;88;22528;-87
2023/01/11 11:05:23;;;;;;;5.77;4.33;;;;;;;12.68;58.95;100532.26;1486578;88;22343;-87
2023/01/11 11:08:21;;;;;;;5.53;3.97;;;;;;;12.97;59.14;100538.52;1482086;88;21484;-86
2023/01/11 11:11:01;;;;;;;7.87;5.40;;;;;;;12.49;58.29;100535.49;1481988;88;21448;-88
2023/01/11 11:14:17;;;;;;;9.70;5.35;;;;;;;12.37;60.23;100526.11;1485924;88;21367;-86
2023/01/11 11:17:13;;;;;;;9.13;5.73;;;;;;;12.30;59.62;100527.73;1492687;87;21799;-86
2023/01/11 11:19:39;;;;;;;7.23;5.50;;;;;;;12.25;61.23;100532.17;1479333;88;21574;-85
2023/01/11 11:22:09;;;;;;;9.77;6.13;;;;;;;11.60;61.04;100531.16;1484249;87;21411;-89
2023/01/11 11:24:53;;;;;;;8.57;5.00;;;;;;;10.76;62.99;100532.23;1483618;88;21337;-88
2023/01/11 11:27:40;;;;;;;7.87;5.53;;;;;;;10.64;64.62;100533.86;1480930;87;21455;-91
2023/01/11 11:30:20;;;;;;;6.93;5.93;;;;;;;10.54;64.94;100527.30;1459805;89;21485;-90
2023/01/11 11:33:01;;;;;;;10.65;7.80;;;;;;;10.39;66.29;100523.80;1485284;88;21434;-89
2023/01/11 11:35:41;;;;;;;7.33;5.57;;;;;;;10.49;66.54;100530.86;1482685;88;21522;-89
2023/01/11 11:38:30;;;;;;;7.47;5.80;;;;;;;10.70;66.47;100530.14;1461881;89;21496;-91
2023/01/11 11:41:10;;;;;;;8.37;5.70;;;;;;;10.65;66.47;100524.97;1467927;87;21405;-87
2023/01/11 11:43:40;;;;;;;8.13;5.67;;;;;;;10.58;66.52;100520.72;1480719;88;21489;-89
2023/01/11 11:46:18;;;;;;;8.28;5.33;;;;;;;10.64;65.41;100515.34;1463815;88;21433;-91
2023/01/11 11:49:16;;;;;;;8.20;5.90;;;;;;;10.86;64.88;100514.96;1480731;88;21633;-90
2023/01/11 11:51:45;;;;;;;7.07;6.13;;;;;;;11.16;65.64;100520.92;1434627;90;22381;-88
2023/01/11 11:54:34;;;;;;;9.00;5.77;;;;;;;10.77;64.99;100518.50;1493918;88;21470;-91
2023/01/11 11:57:14;;;;;;;7.57;5.57;;;;;;;10.93;65.02;100512.05;1491451;87;21432;-89
2023/01/11 11:59:47;;;;;;;;;;;;;;;10.94;64.90;100518.20;1465521;89;21405;-91
2023/01/11 12:02:22;;;;;;;6.67;5.17;;;;;;;11.00;65.73;100516.28;1483606;88;20275;-88
2023/01/11 12:04:50;;;;;;;7.83;5.43;;;;;;;11.16;65.11;100523.56;1484099;88;21547;-91
2023/01/11 12:07:29;;;;;;;8.53;6.00;;;;;;;10.96;64.91;100518.87;1485837;88;21360;-90
2023/01/11 12:10:02;;;;;;;10.83;8.80;;;;;;;11.07;65.37;100512.05;1492471;87;21447;-87
2023/01/11 12:12:30;;;;;;;33.17;23.77;;;;;;;11.36;64.73;100503.08;1460142;88;21375;-89
2023/01/11 12:15:20;;;;;;;8.90;5.70;;;;;;;11.79;64.63;100498.81;1480757;88;21404;-92
2023/01/11 12:17:47;;;;;;;24.13;16.93;;;;;;;11.53;63.70;100512.84;1476936;88;22374;-90
2023/01/11 12:20:30;;;;;;;10.70;6.90;;;;;;;11.48;63.23;100513.32;1479968;87;21389;-89
2023/01/11 12:23:20;;;;;;;6.90;5.23;;;;;;;11.50;63.16;100516.62;1474187;88;21500;-91
2023/01/11 12:26:28;;;;;;;15.37;10.50;;;;;;;11.58;61.84;100509.25;1460152;89;21570;-92